EHMA

Awg-1 Sea

Awg-1 Sea, The Netherlands
METAR EHMA 240725Z AUTO 08015KT 020V140 9999 NCD 15/11 Q1023 W///H///
Observed Flight Rules
May-24 @ 07:25 UTC (40 minutes ago) Visual Flight Rules
Wind Visibility Clouds
80° at 15 knots 10,000+ meters
  • Clear skies
Temperatures Readings
Current 15°C / 59°F
Dewpoint 11°C / 52°F
Humidity 77%
Altimeter 30.21" Hg
Pressure 1023 hPa
Elevation 50
METAR EHMA 240725Z AUTO 08015KT 020V140 9999 NCD 15/11 Q1023 W///H///
Observed Flight Rules
May-24 @ 07:25 UTC
(40 minutes ago)
VFR
Wind Visibility
80° at 15 knots 10,000+ meters
Clouds
  • Clear skies
Temperature Dewpoint
15°C / 59°F 11°C / 52°F
Humidity Altimeter Pressure
77% 30.21" Hg 1023 hPa